createdAt,value
2018-07-22T00:00:54.197Z,22.86
2018-07-22T00:05:37.730Z,23.44
2018-07-22T00:10:28.720Z,23.09
2018-07-22T00:15:19.142Z,23.48
2018-07-22T00:20:11.326Z,23.53
2018-07-22T00:24:56.099Z,23.52
2018-07-22T00:29:39.720Z,23.44
2018-07-22T00:34:23.270Z,23.36
2018-07-22T00:39:09.140Z,23.48
2018-07-22T00:43:52.667Z,23.55
2018-07-22T00:48:37.218Z,23.39
2018-07-22T00:53:20.853Z,23.45
2018-07-22T00:58:05.611Z,23.33
2018-07-22T01:02:49.346Z,23.45
2018-07-22T01:07:33.144Z,22.78
2018-07-22T01:12:18.170Z,22.63
2018-07-22T01:17:01.660Z,22.39
2018-07-22T01:21:45.293Z,23.13
2018-07-22T01:26:28.773Z,22.26
2018-07-22T01:31:12.237Z,21.99
2018-07-22T01:35:55.818Z,21.96
2018-07-22T01:40:39.275Z,22.88
2018-07-22T01:45:22.895Z,22.89
2018-07-22T01:50:06.488Z,22.86
2018-07-22T01:54:50.984Z,22.22
2018-07-22T01:59:34.553Z,22.44
2018-07-22T02:04:19.004Z,22.34
2018-07-22T02:09:02.388Z,21.67
2018-07-22T02:13:45.903Z,22.07
2018-07-22T02:18:29.378Z,22.16
2018-07-22T02:23:12.974Z,21.84
2018-07-22T02:27:57.475Z,21.71
2018-07-22T02:32:41.136Z,22.01
2018-07-22T02:37:25.678Z,22.52
2018-07-22T02:42:09.304Z,22.40
2018-07-22T02:46:53.781Z,22.62
2018-07-22T02:51:37.417Z,22.60
2018-07-22T02:56:20.911Z,22.69
2018-07-22T03:01:04.402Z,22.53
2018-07-22T03:05:47.994Z,22.72
2018-07-22T03:10:31.497Z,22.32
2018-07-22T03:15:16.253Z,22.17
2018-07-22T03:19:59.630Z,22.53
2018-07-22T03:24:44.206Z,22.54
2018-07-22T03:29:27.669Z,22.68
2018-07-22T03:34:12.221Z,22.49
2018-07-22T03:38:55.769Z,22.49
2018-07-22T03:43:39.359Z,22.58
2018-07-22T03:48:22.801Z,22.20
2018-07-22T03:53:06.408Z,22.46
2018-07-22T03:57:50.921Z,22.64
2018-07-22T04:02:34.369Z,22.52
2018-07-22T04:07:18.885Z,22.64
2018-07-22T04:12:02.505Z,22.48
2018-07-22T04:16:46.272Z,22.61
2018-07-22T04:21:29.809Z,22.51
2018-07-22T04:26:14.240Z,22.59
2018-07-22T04:30:57.634Z,22.49
2018-07-22T04:35:41.040Z,22.65
2018-07-22T04:40:24.501Z,22.72
2018-07-22T04:45:08.465Z,22.74
2018-07-22T04:49:52.047Z,22.73
2018-07-22T04:54:35.590Z,22.76
2018-07-22T04:59:19.320Z,22.78
2018-07-22T05:04:03.798Z,22.79
2018-07-22T05:08:47.220Z,22.81
2018-07-22T05:13:30.715Z,22.81
2018-07-22T05:18:15.187Z,22.86
2018-07-22T05:22:58.771Z,22.87
2018-07-22T05:27:42.445Z,22.86
2018-07-22T05:32:25.932Z,22.87
2018-07-22T05:37:10.547Z,22.98
2018-07-22T05:41:54.373Z,22.95
2018-07-22T05:46:38.386Z,22.96
2018-07-22T05:51:22.216Z,23.24
2018-07-22T05:56:05.783Z,23.17
2018-07-22T06:00:49.471Z,23.42
2018-07-22T06:05:33.126Z,23.57
2018-07-22T06:10:16.736Z,23.55
2018-07-22T06:15:01.662Z,23.33
2018-07-22T06:19:45.221Z,23.56
2018-07-22T06:24:28.921Z,23.45
2018-07-22T06:29:12.571Z,23.44
2018-07-22T06:33:56.190Z,23.68
2018-07-22T06:38:39.753Z,23.74
2018-07-22T06:43:23.301Z,23.72
2018-07-22T06:48:07.805Z,23.71
2018-07-22T06:52:51.213Z,23.83
2018-07-22T06:57:35.737Z,24.01
2018-07-22T07:02:19.336Z,24.01
2018-07-22T07:07:03.878Z,24.08
2018-07-22T07:11:47.353Z,24.73
2018-07-22T07:16:30.919Z,24.21
2018-07-22T07:21:14.458Z,24.22
2018-07-22T07:25:58.017Z,24.89
2018-07-22T07:30:41.551Z,24.89
2018-07-22T07:35:25.145Z,24.58
2018-07-22T07:40:08.628Z,24.98
2018-07-22T07:44:52.362Z,24.72
2018-07-22T07:49:36.062Z,24.71
2018-07-22T07:54:19.748Z,25.35
2018-07-22T07:59:03.181Z,25.17
2018-07-22T08:03:46.713Z,25.44
2018-07-22T08:08:30.627Z,25.24
2018-07-22T08:13:15.126Z,25.46
2018-07-22T08:17:58.605Z,26.23
2018-07-22T08:22:43.413Z,25.87
2018-07-22T08:27:27.141Z,25.64
2018-07-22T08:32:10.758Z,25.94
2018-07-22T08:36:55.325Z,25.55
2018-07-22T08:41:39.281Z,25.85
2018-07-22T08:46:22.781Z,25.69
2018-07-22T08:51:06.952Z,25.73
2018-07-22T08:55:50.702Z,25.90
2018-07-22T09:00:34.164Z,25.64
2018-07-22T09:05:17.558Z,25.57
2018-07-22T09:10:01.167Z,25.56
2018-07-22T09:14:44.680Z,25.91
2018-07-22T09:19:28.322Z,25.63
2018-07-22T09:24:11.966Z,26.59
2018-07-22T09:28:55.570Z,25.85
2018-07-22T09:33:39.235Z,26.05
2018-07-22T09:38:24.253Z,26.31
2018-07-22T09:43:07.993Z,26.23
2018-07-22T09:47:51.546Z,26.16
2018-07-22T09:52:35.113Z,26.04
2018-07-22T09:57:19.657Z,26.19
2018-07-22T10:02:03.278Z,26.89
2018-07-22T10:06:46.983Z,26.50
2018-07-22T10:11:30.610Z,27.09
2018-07-22T10:16:14.155Z,27.52
2018-07-22T10:20:57.586Z,27.16
2018-07-22T10:25:41.140Z,27.25
2018-07-22T10:30:24.649Z,27.15
2018-07-22T10:35:08.342Z,27.35
2018-07-22T10:39:51.761Z,26.86
2018-07-22T10:44:36.294Z,28.07
2018-07-22T10:49:19.942Z,28.03
2018-07-22T10:54:03.585Z,28.24
2018-07-22T10:58:47.951Z,28.33
2018-07-22T11:03:31.533Z,27.65
2018-07-22T11:08:15.226Z,27.80
2018-07-22T11:12:59.773Z,28.23
2018-07-22T11:17:43.343Z,28.28
2018-07-22T11:22:26.833Z,28.34
2018-07-22T11:27:11.276Z,28.30
2018-07-22T11:31:54.885Z,28.40
2018-07-22T11:36:38.467Z,28.33
2018-07-22T11:41:22.000Z,28.30
2018-07-22T11:46:06.406Z,28.45
2018-07-22T11:50:49.986Z,28.61
2018-07-22T11:55:33.668Z,28.52
2018-07-22T12:00:17.327Z,28.49
2018-07-22T12:05:00.782Z,28.32
2018-07-22T12:09:44.513Z,28.34
2018-07-22T12:15:57.309Z,28.47
2018-07-22T12:20:41.494Z,28.34
2018-07-22T12:25:27.921Z,28.48
2018-07-22T12:30:13.196Z,28.49
2018-07-22T12:34:57.597Z,28.47
2018-07-22T12:39:41.264Z,28.39
2018-07-22T12:44:24.771Z,28.57
2018-07-22T12:49:08.449Z,28.56
2018-07-22T12:53:53.168Z,28.37
2018-07-22T12:58:36.781Z,28.43
2018-07-22T13:03:20.412Z,28.44
2018-07-22T13:08:04.038Z,28.50
2018-07-22T13:12:47.721Z,28.45
2018-07-22T13:17:31.361Z,28.43
2018-07-22T13:22:14.843Z,28.31
2018-07-22T13:26:59.686Z,28.40
2018-07-22T13:31:43.342Z,28.31
2018-07-22T13:36:26.923Z,28.33
2018-07-22T13:41:10.438Z,28.36
2018-07-22T13:45:54.190Z,28.41
2018-07-22T13:50:38.264Z,28.26
2018-07-22T13:55:22.025Z,28.17
2018-07-22T14:00:05.655Z,28.29
2018-07-22T14:04:49.276Z,28.23
2018-07-22T14:09:32.888Z,28.26
2018-07-22T14:14:16.627Z,28.24
2018-07-22T14:19:00.185Z,28.20
2018-07-22T14:23:43.669Z,28.21
2018-07-22T14:28:27.238Z,28.11
2018-07-22T14:33:10.722Z,28.17
2018-07-22T14:37:54.299Z,28.12
2018-07-22T14:42:37.975Z,27.97
2018-07-22T14:47:21.428Z,28.09
2018-07-22T14:52:04.935Z,28.02
2018-07-22T14:56:48.985Z,27.85
2018-07-22T15:01:32.659Z,27.81
2018-07-22T15:06:18.038Z,28.03
2018-07-22T15:11:01.651Z,28.07
2018-07-22T15:15:45.415Z,28.02
2018-07-22T15:20:29.170Z,27.86
2018-07-22T15:25:12.883Z,28.06
2018-07-22T15:29:56.534Z,27.94
2018-07-22T15:34:40.289Z,27.92
2018-07-22T15:39:23.649Z,27.91
2018-07-22T15:44:07.233Z,28.03
2018-07-22T15:48:51.044Z,28.10
2018-07-22T15:53:34.391Z,27.93
2018-07-22T15:58:18.017Z,28.25
2018-07-22T16:03:01.655Z,28.01
2018-07-22T16:07:45.323Z,27.97
2018-07-22T16:12:28.921Z,27.90
2018-07-22T16:17:12.449Z,28.09
2018-07-22T16:21:56.981Z,28.28
2018-07-22T16:26:40.555Z,27.95
2018-07-22T16:31:24.075Z,28.12
2018-07-22T16:36:07.683Z,28.03
2018-07-22T16:40:51.163Z,28.04
2018-07-22T16:45:35.775Z,28.25
2018-07-22T16:50:19.238Z,28.17
2018-07-22T16:55:03.777Z,28.34
2018-07-22T16:59:47.141Z,28.28
2018-07-22T17:04:30.669Z,27.63
2018-07-22T17:09:14.242Z,27.90
2018-07-22T17:13:57.679Z,27.90
2018-07-22T17:18:41.136Z,27.39
2018-07-22T17:23:24.764Z,26.96
2018-07-22T17:28:08.367Z,26.68
2018-07-22T17:32:51.920Z,25.88
2018-07-22T17:37:38.852Z,25.95
2018-07-22T17:42:22.238Z,26.03
2018-07-22T17:47:06.271Z,25.06
2018-07-22T17:51:49.741Z,25.13
2018-07-22T17:56:33.091Z,26.00
2018-07-22T18:01:16.890Z,24.60
2018-07-22T18:06:00.787Z,26.54
2018-07-22T18:10:44.299Z,26.64
2018-07-22T18:15:27.958Z,26.56
2018-07-22T18:20:11.993Z,26.38
2018-07-22T18:24:55.938Z,26.33
2018-07-22T18:29:39.552Z,26.64
2018-07-22T18:34:23.491Z,25.17
2018-07-22T18:39:09.149Z,25.08
2018-07-22T18:43:58.009Z,26.11
2018-07-22T18:48:42.113Z,26.28
2018-07-22T18:53:27.055Z,24.81
2018-07-22T18:58:10.589Z,25.36
2018-07-22T19:02:55.162Z,25.82
2018-07-22T19:07:38.861Z,26.14
2018-07-22T19:12:23.524Z,25.30
2018-07-22T19:17:10.107Z,24.92
2018-07-22T19:21:54.690Z,26.09
2018-07-22T19:26:38.303Z,24.98
2018-07-22T19:31:21.927Z,25.53
2018-07-22T19:36:06.300Z,26.01
2018-07-22T19:40:49.836Z,25.70
2018-07-22T19:45:33.475Z,25.57
2018-07-22T19:50:16.972Z,25.56
2018-07-22T19:55:00.679Z,25.24
2018-07-22T19:59:44.269Z,25.94
2018-07-22T20:04:27.930Z,25.32
2018-07-22T20:09:12.663Z,25.89
2018-07-22T20:13:57.326Z,25.74
2018-07-22T20:18:40.953Z,25.21
2018-07-22T20:23:25.515Z,24.94
2018-07-22T20:28:09.158Z,24.69
2018-07-22T20:32:52.643Z,25.40
2018-07-22T20:37:36.237Z,24.27
2018-07-22T20:42:20.834Z,25.42
2018-07-22T20:47:04.277Z,25.22
2018-07-22T20:51:48.849Z,25.07
2018-07-22T20:56:32.208Z,25.34
2018-07-22T21:01:15.845Z,24.38
2018-07-22T21:05:59.484Z,24.92
2018-07-22T21:10:43.141Z,24.92
2018-07-22T21:15:26.780Z,23.94
2018-07-22T21:20:10.261Z,23.57
2018-07-22T21:24:53.799Z,24.54
2018-07-22T21:29:37.226Z,24.82
2018-07-22T21:34:29.874Z,24.81
2018-07-22T21:39:13.339Z,24.53
2018-07-22T21:43:56.802Z,23.44
2018-07-22T21:48:40.318Z,23.99
2018-07-22T21:53:23.759Z,23.05
2018-07-22T21:58:07.111Z,22.83
2018-07-22T22:02:51.821Z,24.03
2018-07-22T22:07:35.263Z,24.00
2018-07-22T22:12:19.673Z,24.12
2018-07-22T22:17:03.310Z,23.83
2018-07-22T22:21:47.798Z,24.06
2018-07-22T22:26:31.266Z,23.83
2018-07-22T22:31:14.950Z,22.59
2018-07-22T22:35:58.681Z,23.45
2018-07-22T22:40:42.309Z,23.05
2018-07-22T22:45:27.858Z,22.65
2018-07-22T22:50:11.421Z,23.06
2018-07-22T22:54:56.093Z,23.73
2018-07-22T22:59:39.665Z,23.76
2018-07-22T23:04:24.056Z,23.85
2018-07-22T23:09:09.456Z,23.15
2018-07-22T23:13:54.066Z,23.15
2018-07-22T23:18:37.557Z,23.75
2018-07-22T23:23:21.988Z,23.67
2018-07-22T23:28:05.664Z,23.18
2018-07-22T23:32:50.218Z,23.56
2018-07-22T23:37:33.862Z,23.03
2018-07-22T23:42:18.550Z,23.15
2018-07-22T23:47:02.064Z,22.48
2018-07-22T23:51:46.549Z,22.22
2018-07-22T23:56:30.059Z,22.04
